sensor_id;sensor_type;location;lat;lon;timestamp;P1;durP1;ratioP1;P2;durP2;ratioP2
55218;SDS011;65463;43.864;20.136;2023-01-29T00:01:04;19.70;;;9.73;;
55218;SDS011;65463;43.864;20.136;2023-01-29T00:03:31;18.08;;;8.98;;
55218;SDS011;65463;43.864;20.136;2023-01-29T00:05:57;19.08;;;10.07;;
55218;SDS011;65463;43.864;20.136;2023-01-29T00:08:24;18.88;;;9.93;;
55218;SDS011;65463;43.864;20.136;2023-01-29T00:10:50;21.52;;;10.38;;
55218;SDS011;65463;43.864;20.136;2023-01-29T00:13:16;20.20;;;10.55;;
55218;SDS011;65463;43.864;20.136;2023-01-29T00:15:51;21.55;;;11.23;;
55218;SDS011;65463;43.864;20.136;2023-01-29T00:18:18;22.42;;;11.50;;
55218;SDS011;65463;43.864;20.136;2023-01-29T00:20:45;20.88;;;10.90;;
55218;SDS011;65463;43.864;20.136;2023-01-29T00:23:11;22.38;;;11.23;;
55218;SDS011;65463;43.864;20.136;2023-01-29T00:25:37;21.75;;;11.18;;
55218;SDS011;65463;43.864;20.136;2023-01-29T00:28:03;23.25;;;11.18;;
55218;SDS011;65463;43.864;20.136;2023-01-29T00:30:29;24.50;;;11.85;;
55218;SDS011;65463;43.864;20.136;2023-01-29T00:32:56;23.05;;;12.43;;
55218;SDS011;65463;43.864;20.136;2023-01-29T00:35:22;25.13;;;12.00;;
55218;SDS011;65463;43.864;20.136;2023-01-29T00:37:48;25.08;;;12.15;;
55218;SDS011;65463;43.864;20.136;2023-01-29T00:40:14;26.90;;;11.57;;
55218;SDS011;65463;43.864;20.136;2023-01-29T00:42:42;25.83;;;12.18;;
55218;SDS011;65463;43.864;20.136;2023-01-29T00:45:27;25.23;;;12.45;;
55218;SDS011;65463;43.864;20.136;2023-01-29T00:47:53;25.90;;;12.32;;
55218;SDS011;65463;43.864;20.136;2023-01-29T00:50:19;24.05;;;11.88;;
55218;SDS011;65463;43.864;20.136;2023-01-29T00:52:46;25.00;;;11.70;;
55218;SDS011;65463;43.864;20.136;2023-01-29T00:55:13;26.30;;;12.68;;
55218;SDS011;65463;43.864;20.136;2023-01-29T00:57:40;28.00;;;12.85;;
55218;SDS011;65463;43.864;20.136;2023-01-29T01:00:07;28.00;;;13.07;;
55218;SDS011;65463;43.864;20.136;2023-01-29T01:02:34;26.98;;;12.90;;
55218;SDS011;65463;43.864;20.136;2023-01-29T01:05:18;26.02;;;12.68;;
55218;SDS011;65463;43.864;20.136;2023-01-29T01:07:49;27.40;;;12.55;;
55218;SDS011;65463;43.864;20.136;2023-01-29T01:10:17;30.58;;;13.82;;
55218;SDS011;65463;43.864;20.136;2023-01-29T01:12:52;27.83;;;12.70;;
55218;SDS011;65463;43.864;20.136;2023-01-29T01:15:20;26.67;;;13.02;;
55218;SDS011;65463;43.864;20.136;2023-01-29T01:17:46;28.60;;;13.15;;
55218;SDS011;65463;43.864;20.136;2023-01-29T01:20:13;30.17;;;13.32;;
55218;SDS011;65463;43.864;20.136;2023-01-29T01:22:39;27.27;;;12.40;;
55218;SDS011;65463;43.864;20.136;2023-01-29T01:25:05;28.73;;;13.02;;
55218;SDS011;65463;43.864;20.136;2023-01-29T01:27:32;31.35;;;14.20;;
55218;SDS011;65463;43.864;20.136;2023-01-29T01:29:59;28.23;;;13.52;;
55218;SDS011;65463;43.864;20.136;2023-01-29T01:32:25;31.45;;;15.05;;
55218;SDS011;65463;43.864;20.136;2023-01-29T01:34:51;29.30;;;13.68;;
55218;SDS011;65463;43.864;20.136;2023-01-29T01:37:18;30.73;;;13.85;;
55218;SDS011;65463;43.864;20.136;2023-01-29T01:39:45;27.27;;;12.85;;
55218;SDS011;65463;43.864;20.136;2023-01-29T01:42:13;28.73;;;13.52;;
55218;SDS011;65463;43.864;20.136;2023-01-29T01:47:29;32.83;;;15.07;;
55218;SDS011;65463;43.864;20.136;2023-01-29T01:49:58;32.10;;;13.95;;
55218;SDS011;65463;43.864;20.136;2023-01-29T01:52:26;28.92;;;14.35;;
55218;SDS011;65463;43.864;20.136;2023-01-29T01:54:53;31.65;;;15.80;;
55218;SDS011;65463;43.864;20.136;2023-01-29T01:57:20;28.85;;;13.68;;
55218;SDS011;65463;43.864;20.136;2023-01-29T01:59:51;27.88;;;13.93;;
55218;SDS011;65463;43.864;20.136;2023-01-29T02:02:19;27.35;;;13.65;;
55218;SDS011;65463;43.864;20.136;2023-01-29T02:05:04;31.55;;;15.10;;
55218;SDS011;65463;43.864;20.136;2023-01-29T02:07:49;33.35;;;15.48;;
55218;SDS011;65463;43.864;20.136;2023-01-29T02:10:37;32.72;;;15.52;;
55218;SDS011;65463;43.864;20.136;2023-01-29T02:13:04;33.28;;;15.10;;
55218;SDS011;65463;43.864;20.136;2023-01-29T02:15:31;33.80;;;15.43;;
55218;SDS011;65463;43.864;20.136;2023-01-29T02:17:57;28.15;;;13.15;;
55218;SDS011;65463;43.864;20.136;2023-01-29T02:20:24;28.80;;;14.43;;
55218;SDS011;65463;43.864;20.136;2023-01-29T02:25:46;27.98;;;14.00;;
55218;SDS011;65463;43.864;20.136;2023-01-29T02:28:28;32.95;;;15.63;;
55218;SDS011;65463;43.864;20.136;2023-01-29T02:35:51;32.60;;;15.43;;
55218;SDS011;65463;43.864;20.136;2023-01-29T02:41:04;31.05;;;14.57;;
55218;SDS011;65463;43.864;20.136;2023-01-29T02:46:19;32.67;;;15.00;;
55218;SDS011;65463;43.864;20.136;2023-01-29T02:48:53;32.03;;;15.63;;
55218;SDS011;65463;43.864;20.136;2023-01-29T02:52:08;29.83;;;15.40;;
55218;SDS011;65463;43.864;20.136;2023-01-29T02:54:18;33.05;;;15.73;;
55218;SDS011;65463;43.864;20.136;2023-01-29T02:56:47;29.13;;;14.52;;
55218;SDS011;65463;43.864;20.136;2023-01-29T02:59:18;29.17;;;14.95;;
55218;SDS011;65463;43.864;20.136;2023-01-29T03:01:57;31.02;;;14.82;;
55218;SDS011;65463;43.864;20.136;2023-01-29T03:04:28;35.08;;;15.90;;
55218;SDS011;65463;43.864;20.136;2023-01-29T03:07:08;28.08;;;13.88;;
55218;SDS011;65463;43.864;20.136;2023-01-29T03:09:58;31.33;;;15.32;;
55218;SDS011;65463;43.864;20.136;2023-01-29T03:12:25;31.63;;;14.63;;
55218;SDS011;65463;43.864;20.136;2023-01-29T03:14:57;30.20;;;14.93;;
55218;SDS011;65463;43.864;20.136;2023-01-29T03:20:04;30.58;;;12.88;;
55218;SDS011;65463;43.864;20.136;2023-01-29T03:22:32;25.20;;;12.27;;
55218;SDS011;65463;43.864;20.136;2023-01-29T03:24:58;29.52;;;13.75;;
55218;SDS011;65463;43.864;20.136;2023-01-29T03:27:47;31.73;;;13.38;;
55218;SDS011;65463;43.864;20.136;2023-01-29T03:30:34;29.67;;;13.70;;
55218;SDS011;65463;43.864;20.136;2023-01-29T03:33:20;33.15;;;15.32;;
55218;SDS011;65463;43.864;20.136;2023-01-29T03:35:58;32.47;;;15.38;;
55218;SDS011;65463;43.864;20.136;2023-01-29T03:38:26;34.63;;;16.45;;
55218;SDS011;65463;43.864;20.136;2023-01-29T03:40:58;37.38;;;17.58;;
55218;SDS011;65463;43.864;20.136;2023-01-29T03:43:35;34.80;;;17.42;;
55218;SDS011;65463;43.864;20.136;2023-01-29T03:46:09;35.05;;;17.27;;
55218;SDS011;65463;43.864;20.136;2023-01-29T03:51:11;35.67;;;16.52;;
55218;SDS011;65463;43.864;20.136;2023-01-29T03:53:45;34.20;;;16.33;;
55218;SDS011;65463;43.864;20.136;2023-01-29T03:56:16;34.13;;;16.35;;
55218;SDS011;65463;43.864;20.136;2023-01-29T03:58:46;33.58;;;15.95;;
55218;SDS011;65463;43.864;20.136;2023-01-29T04:01:17;34.35;;;15.20;;
55218;SDS011;65463;43.864;20.136;2023-01-29T04:03:49;33.40;;;15.68;;
55218;SDS011;65463;43.864;20.136;2023-01-29T04:06:17;35.70;;;16.05;;
55218;SDS011;65463;43.864;20.136;2023-01-29T04:08:47;33.92;;;15.52;;
55218;SDS011;65463;43.864;20.136;2023-01-29T04:11:16;32.60;;;15.30;;
55218;SDS011;65463;43.864;20.136;2023-01-29T04:13:43;40.42;;;17.25;;
55218;SDS011;65463;43.864;20.136;2023-01-29T04:16:12;37.47;;;17.30;;
55218;SDS011;65463;43.864;20.136;2023-01-29T04:18:43;35.10;;;17.13;;
55218;SDS011;65463;43.864;20.136;2023-01-29T04:21:09;36.03;;;16.60;;
55218;SDS011;65463;43.864;20.136;2023-01-29T04:23:35;35.40;;;15.88;;
55218;SDS011;65463;43.864;20.136;2023-01-29T04:31:10;41.22;;;18.55;;
55218;SDS011;65463;43.864;20.136;2023-01-29T04:33:46;41.92;;;17.48;;
55218;SDS011;65463;43.864;20.136;2023-01-29T04:38:46;35.13;;;15.65;;
55218;SDS011;65463;43.864;20.136;2023-01-29T04:41:20;33.92;;;16.17;;
55218;SDS011;65463;43.864;20.136;2023-01-29T04:46:45;37.53;;;16.38;;
55218;SDS011;65463;43.864;20.136;2023-01-29T04:49:14;39.35;;;16.85;;
55218;SDS011;65463;43.864;20.136;2023-01-29T04:54:39;34.13;;;14.98;;
55218;SDS011;65463;43.864;20.136;2023-01-29T04:57:23;34.60;;;15.18;;
55218;SDS011;65463;43.864;20.136;2023-01-29T05:00:05;39.28;;;16.13;;
55218;SDS011;65463;43.864;20.136;2023-01-29T05:02:33;38.47;;;17.38;;
55218;SDS011;65463;43.864;20.136;2023-01-29T05:05:01;37.47;;;17.33;;
55218;SDS011;65463;43.864;20.136;2023-01-29T05:07:30;35.05;;;16.10;;
55218;SDS011;65463;43.864;20.136;2023-01-29T05:09:57;38.13;;;15.98;;
55218;SDS011;65463;43.864;20.136;2023-01-29T05:12:24;37.53;;;16.88;;
55218;SDS011;65463;43.864;20.136;2023-01-29T05:14:52;36.20;;;15.95;;
55218;SDS011;65463;43.864;20.136;2023-01-29T05:17:18;34.08;;;15.75;;
55218;SDS011;65463;43.864;20.136;2023-01-29T05:19:45;35.03;;;15.25;;
55218;SDS011;65463;43.864;20.136;2023-01-29T05:22:12;34.80;;;15.60;;
55218;SDS011;65463;43.864;20.136;2023-01-29T05:24:40;33.50;;;15.50;;
55218;SDS011;65463;43.864;20.136;2023-01-29T05:27:08;36.45;;;16.23;;
55218;SDS011;65463;43.864;20.136;2023-01-29T05:29:55;35.80;;;16.75;;
55218;SDS011;65463;43.864;20.136;2023-01-29T05:32:21;35.05;;;14.98;;
55218;SDS011;65463;43.864;20.136;2023-01-29T05:34:48;34.67;;;15.32;;
55218;SDS011;65463;43.864;20.136;2023-01-29T05:37:14;37.08;;;16.38;;
55218;SDS011;65463;43.864;20.136;2023-01-29T05:39:40;35.17;;;16.20;;
55218;SDS011;65463;43.864;20.136;2023-01-29T05:42:06;35.17;;;15.63;;
55218;SDS011;65463;43.864;20.136;2023-01-29T05:44:33;35.83;;;16.23;;
55218;SDS011;65463;43.864;20.136;2023-01-29T05:46:59;34.88;;;15.95;;
55218;SDS011;65463;43.864;20.136;2023-01-29T05:49:27;34.47;;;15.10;;
55218;SDS011;65463;43.864;20.136;2023-01-29T05:51:53;35.30;;;15.82;;
55218;SDS011;65463;43.864;20.136;2023-01-29T05:54:19;39.80;;;16.30;;
55218;SDS011;65463;43.864;20.136;2023-01-29T05:56:45;35.63;;;15.38;;
55218;SDS011;65463;43.864;20.136;2023-01-29T05:59:11;37.58;;;15.90;;
55218;SDS011;65463;43.864;20.136;2023-01-29T06:01:38;35.17;;;15.60;;
55218;SDS011;65463;43.864;20.136;2023-01-29T06:04:04;37.00;;;16.20;;
55218;SDS011;65463;43.864;20.136;2023-01-29T06:06:30;34.88;;;15.98;;
55218;SDS011;65463;43.864;20.136;2023-01-29T06:08:56;38.67;;;16.15;;
55218;SDS011;65463;43.864;20.136;2023-01-29T06:11:22;40.85;;;17.20;;
55218;SDS011;65463;43.864;20.136;2023-01-29T06:13:49;39.10;;;17.20;;
55218;SDS011;65463;43.864;20.136;2023-01-29T06:16:15;39.28;;;17.40;;
55218;SDS011;65463;43.864;20.136;2023-01-29T06:18:41;43.60;;;17.45;;
55218;SDS011;65463;43.864;20.136;2023-01-29T06:21:09;37.70;;;17.52;;
55218;SDS011;65463;43.864;20.136;2023-01-29T06:23:35;44.75;;;18.85;;
55218;SDS011;65463;43.864;20.136;2023-01-29T06:26:03;43.97;;;18.83;;
55218;SDS011;65463;43.864;20.136;2023-01-29T06:28:29;45.15;;;20.10;;
55218;SDS011;65463;43.864;20.136;2023-01-29T06:30:56;43.63;;;19.15;;
55218;SDS011;65463;43.864;20.136;2023-01-29T06:33:23;45.42;;;20.08;;
55218;SDS011;65463;43.864;20.136;2023-01-29T06:35:59;40.83;;;19.48;;
55218;SDS011;65463;43.864;20.136;2023-01-29T06:38:26;43.33;;;20.00;;
55218;SDS011;65463;43.864;20.136;2023-01-29T06:40:52;42.85;;;19.13;;
55218;SDS011;65463;43.864;20.136;2023-01-29T06:43:19;43.17;;;18.13;;
55218;SDS011;65463;43.864;20.136;2023-01-29T06:45:49;39.97;;;17.67;;
55218;SDS011;65463;43.864;20.136;2023-01-29T06:48:15;43.00;;;18.55;;
55218;SDS011;65463;43.864;20.136;2023-01-29T06:50:41;39.92;;;18.13;;
55218;SDS011;65463;43.864;20.136;2023-01-29T06:53:08;37.83;;;16.80;;
55218;SDS011;65463;43.864;20.136;2023-01-29T06:55:34;38.63;;;17.13;;
55218;SDS011;65463;43.864;20.136;2023-01-29T06:58:09;40.78;;;18.55;;
55218;SDS011;65463;43.864;20.136;2023-01-29T07:00:36;41.03;;;18.67;;
55218;SDS011;65463;43.864;20.136;2023-01-29T07:03:03;46.60;;;19.60;;
55218;SDS011;65463;43.864;20.136;2023-01-29T07:05:29;42.88;;;19.30;;
55218;SDS011;65463;43.864;20.136;2023-01-29T07:07:56;48.67;;;20.95;;
55218;SDS011;65463;43.864;20.136;2023-01-29T07:10:23;46.47;;;20.45;;
55218;SDS011;65463;43.864;20.136;2023-01-29T07:12:50;44.88;;;19.50;;
55218;SDS011;65463;43.864;20.136;2023-01-29T07:15:16;43.35;;;20.17;;
55218;SDS011;65463;43.864;20.136;2023-01-29T07:18:05;43.10;;;18.27;;
55218;SDS011;65463;43.864;20.136;2023-01-29T07:20:36;44.33;;;18.48;;
55218;SDS011;65463;43.864;20.136;2023-01-29T07:23:03;41.47;;;18.23;;
55218;SDS011;65463;43.864;20.136;2023-01-29T07:25:29;41.72;;;19.38;;
55218;SDS011;65463;43.864;20.136;2023-01-29T07:27:58;39.47;;;18.02;;
55218;SDS011;65463;43.864;20.136;2023-01-29T07:30:25;38.17;;;17.15;;
55218;SDS011;65463;43.864;20.136;2023-01-29T07:32:51;38.78;;;17.15;;
55218;SDS011;65463;43.864;20.136;2023-01-29T07:35:17;44.80;;;19.00;;
55218;SDS011;65463;43.864;20.136;2023-01-29T07:37:43;35.83;;;17.40;;
55218;SDS011;65463;43.864;20.136;2023-01-29T07:40:10;43.50;;;18.85;;
55218;SDS011;65463;43.864;20.136;2023-01-29T07:42:37;47.83;;;20.20;;
55218;SDS011;65463;43.864;20.136;2023-01-29T07:45:04;44.15;;;19.58;;
55218;SDS011;65463;43.864;20.136;2023-01-29T07:47:31;38.45;;;16.60;;
55218;SDS011;65463;43.864;20.136;2023-01-29T07:49:57;41.85;;;17.90;;
55218;SDS011;65463;43.864;20.136;2023-01-29T07:52:23;39.85;;;17.63;;
55218;SDS011;65463;43.864;20.136;2023-01-29T07:54:49;47.10;;;20.98;;
55218;SDS011;65463;43.864;20.136;2023-01-29T07:57:15;47.33;;;21.58;;
55218;SDS011;65463;43.864;20.136;2023-01-29T07:59:41;36.20;;;17.38;;
55218;SDS011;65463;43.864;20.136;2023-01-29T08:02:08;39.00;;;17.40;;
55218;SDS011;65463;43.864;20.136;2023-01-29T08:04:34;40.58;;;17.90;;
55218;SDS011;65463;43.864;20.136;2023-01-29T08:07:00;39.22;;;17.42;;
55218;SDS011;65463;43.864;20.136;2023-01-29T08:09:28;42.30;;;18.60;;
55218;SDS011;65463;43.864;20.136;2023-01-29T08:11:54;40.88;;;17.20;;
55218;SDS011;65463;43.864;20.136;2023-01-29T08:14:21;38.28;;;17.70;;
55218;SDS011;65463;43.864;20.136;2023-01-29T08:16:48;40.15;;;17.85;;
55218;SDS011;65463;43.864;20.136;2023-01-29T08:19:14;40.63;;;17.98;;
55218;SDS011;65463;43.864;20.136;2023-01-29T08:21:40;39.25;;;16.77;;
55218;SDS011;65463;43.864;20.136;2023-01-29T08:24:06;39.92;;;17.75;;
55218;SDS011;65463;43.864;20.136;2023-01-29T08:26:33;39.25;;;17.13;;
55218;SDS011;65463;43.864;20.136;2023-01-29T08:28:59;36.85;;;16.38;;
55218;SDS011;65463;43.864;20.136;2023-01-29T08:31:25;34.50;;;15.55;;
55218;SDS011;65463;43.864;20.136;2023-01-29T08:33:52;39.92;;;16.80;;
55218;SDS011;65463;43.864;20.136;2023-01-29T08:36:19;41.08;;;17.80;;
55218;SDS011;65463;43.864;20.136;2023-01-29T08:38:45;36.22;;;17.13;;
55218;SDS011;65463;43.864;20.136;2023-01-29T08:41:11;38.35;;;17.27;;
55218;SDS011;65463;43.864;20.136;2023-01-29T08:43:37;38.53;;;17.80;;
55218;SDS011;65463;43.864;20.136;2023-01-29T08:46:05;40.70;;;17.17;;
55218;SDS011;65463;43.864;20.136;2023-01-29T08:48:31;43.08;;;18.45;;
55218;SDS011;65463;43.864;20.136;2023-01-29T08:50:58;41.42;;;17.88;;
55218;SDS011;65463;43.864;20.136;2023-01-29T08:53:24;44.42;;;18.65;;
55218;SDS011;65463;43.864;20.136;2023-01-29T08:55:50;38.30;;;17.35;;
55218;SDS011;65463;43.864;20.136;2023-01-29T08:58:17;39.30;;;17.85;;
55218;SDS011;65463;43.864;20.136;2023-01-29T09:00:43;39.25;;;16.67;;
55218;SDS011;65463;43.864;20.136;2023-01-29T09:03:09;40.38;;;17.95;;
55218;SDS011;65463;43.864;20.136;2023-01-29T09:05:36;41.42;;;18.95;;
55218;SDS011;65463;43.864;20.136;2023-01-29T09:08:03;38.55;;;17.40;;
55218;SDS011;65463;43.864;20.136;2023-01-29T09:10:29;42.35;;;19.85;;
55218;SDS011;65463;43.864;20.136;2023-01-29T09:12:56;49.75;;;20.45;;
55218;SDS011;65463;43.864;20.136;2023-01-29T09:15:22;46.30;;;21.38;;
55218;SDS011;65463;43.864;20.136;2023-01-29T09:17:49;70.38;;;32.05;;
55218;SDS011;65463;43.864;20.136;2023-01-29T09:20:15;44.65;;;18.98;;
55218;SDS011;65463;43.864;20.136;2023-01-29T09:22:42;37.47;;;17.33;;
55218;SDS011;65463;43.864;20.136;2023-01-29T09:25:08;40.40;;;18.15;;
55218;SDS011;65463;43.864;20.136;2023-01-29T09:27:35;41.78;;;17.40;;
55218;SDS011;65463;43.864;20.136;2023-01-29T09:30:02;41.88;;;18.85;;
55218;SDS011;65463;43.864;20.136;2023-01-29T09:32:28;37.28;;;17.10;;
55218;SDS011;65463;43.864;20.136;2023-01-29T09:34:55;45.05;;;18.80;;
55218;SDS011;65463;43.864;20.136;2023-01-29T09:37:21;39.97;;;17.60;;
55218;SDS011;65463;43.864;20.136;2023-01-29T09:39:48;37.03;;;17.02;;
55218;SDS011;65463;43.864;20.136;2023-01-29T09:42:22;38.55;;;17.05;;
55218;SDS011;65463;43.864;20.136;2023-01-29T09:47:19;35.55;;;16.05;;
55218;SDS011;65463;43.864;20.136;2023-01-29T09:49:46;36.95;;;17.17;;
55218;SDS011;65463;43.864;20.136;2023-01-29T09:52:27;34.15;;;15.57;;
55218;SDS011;65463;43.864;20.136;2023-01-29T09:57:47;34.28;;;15.45;;
55218;SDS011;65463;43.864;20.136;2023-01-29T10:00:15;30.85;;;14.40;;
55218;SDS011;65463;43.864;20.136;2023-01-29T10:02:51;29.30;;;13.80;;
55218;SDS011;65463;43.864;20.136;2023-01-29T10:05:33;29.50;;;13.98;;
55218;SDS011;65463;43.864;20.136;2023-01-29T10:13:23;29.58;;;13.02;;
55218;SDS011;65463;43.864;20.136;2023-01-29T10:23:26;30.75;;;15.32;;
55218;SDS011;65463;43.864;20.136;2023-01-29T10:25:53;33.42;;;14.90;;
55218;SDS011;65463;43.864;20.136;2023-01-29T10:28:22;26.30;;;12.90;;
55218;SDS011;65463;43.864;20.136;2023-01-29T10:30:53;24.33;;;12.18;;
55218;SDS011;65463;43.864;20.136;2023-01-29T10:33:31;27.63;;;12.55;;
55218;SDS011;65463;43.864;20.136;2023-01-29T10:36:00;27.63;;;13.55;;
55218;SDS011;65463;43.864;20.136;2023-01-29T10:38:34;26.40;;;12.73;;
55218;SDS011;65463;43.864;20.136;2023-01-29T10:43:36;27.95;;;13.13;;
55218;SDS011;65463;43.864;20.136;2023-01-29T10:46:14;27.55;;;12.93;;
55218;SDS011;65463;43.864;20.136;2023-01-29T10:56:52;26.90;;;13.32;;
55218;SDS011;65463;43.864;20.136;2023-01-29T11:01:56;27.50;;;13.65;;
55218;SDS011;65463;43.864;20.136;2023-01-29T11:04:23;27.73;;;13.65;;
55218;SDS011;65463;43.864;20.136;2023-01-29T11:06:50;27.75;;;13.57;;
55218;SDS011;65463;43.864;20.136;2023-01-29T11:09:33;28.88;;;14.27;;
55218;SDS011;65463;43.864;20.136;2023-01-29T11:12:04;31.73;;;15.10;;
55218;SDS011;65463;43.864;20.136;2023-01-29T11:14:41;29.33;;;12.93;;
55218;SDS011;65463;43.864;20.136;2023-01-29T11:17:19;28.73;;;13.13;;
55218;SDS011;65463;43.864;20.136;2023-01-29T11:19:47;29.30;;;14.38;;
55218;SDS011;65463;43.864;20.136;2023-01-29T11:22:19;32.40;;;14.15;;
55218;SDS011;65463;43.864;20.136;2023-01-29T11:27:19;29.08;;;13.90;;
55218;SDS011;65463;43.864;20.136;2023-01-29T11:29:47;29.95;;;13.98;;
55218;SDS011;65463;43.864;20.136;2023-01-29T11:32:14;30.17;;;13.60;;
55218;SDS011;65463;43.864;20.136;2023-01-29T11:34:59;30.15;;;13.98;;
55218;SDS011;65463;43.864;20.136;2023-01-29T11:37:33;29.73;;;14.18;;
55218;SDS011;65463;43.864;20.136;2023-01-29T11:39:59;30.45;;;14.30;;
55218;SDS011;65463;43.864;20.136;2023-01-29T11:42:26;26.98;;;14.43;;
55218;SDS011;65463;43.864;20.136;2023-01-29T11:44:55;30.70;;;14.77;;
55218;SDS011;65463;43.864;20.136;2023-01-29T11:47:27;28.88;;;14.60;;
55218;SDS011;65463;43.864;20.136;2023-01-29T11:49:55;27.23;;;13.07;;
55218;SDS011;65463;43.864;20.136;2023-01-29T11:52:22;27.10;;;13.52;;
55218;SDS011;65463;43.864;20.136;2023-01-29T11:54:54;27.33;;;13.70;;
55218;SDS011;65463;43.864;20.136;2023-01-29T11:59:49;28.65;;;13.35;;
55218;SDS011;65463;43.864;20.136;2023-01-29T12:02:29;28.63;;;13.55;;
55218;SDS011;65463;43.864;20.136;2023-01-29T12:04:59;31.83;;;14.63;;
55218;SDS011;65463;43.864;20.136;2023-01-29T12:07:26;31.27;;;14.75;;
55218;SDS011;65463;43.864;20.136;2023-01-29T12:09:54;30.83;;;14.45;;
55218;SDS011;65463;43.864;20.136;2023-01-29T12:12:31;34.88;;;15.70;;
55218;SDS011;65463;43.864;20.136;2023-01-29T12:15:18;33.28;;;15.48;;
55218;SDS011;65463;43.864;20.136;2023-01-29T12:17:49;33.90;;;14.88;;
55218;SDS011;65463;43.864;20.136;2023-01-29T12:33:47;34.17;;;16.13;;
55218;SDS011;65463;43.864;20.136;2023-01-29T12:36:27;32.42;;;15.75;;
55218;SDS011;65463;43.864;20.136;2023-01-29T12:38:56;35.03;;;16.80;;
55218;SDS011;65463;43.864;20.136;2023-01-29T12:43:54;34.00;;;15.27;;
55218;SDS011;65463;43.864;20.136;2023-01-29T12:46:23;32.55;;;14.70;;
55218;SDS011;65463;43.864;20.136;2023-01-29T12:48:50;35.33;;;15.70;;
55218;SDS011;65463;43.864;20.136;2023-01-29T12:51:18;45.15;;;19.20;;
55218;SDS011;65463;43.864;20.136;2023-01-29T12:53:56;35.17;;;16.45;;
55218;SDS011;65463;43.864;20.136;2023-01-29T12:58:55;37.55;;;16.05;;
55218;SDS011;65463;43.864;20.136;2023-01-29T13:02:25;32.92;;;16.42;;
55218;SDS011;65463;43.864;20.136;2023-01-29T13:04:24;56.88;;;25.30;;
55218;SDS011;65463;43.864;20.136;2023-01-29T13:06:55;57.63;;;24.52;;
55218;SDS011;65463;43.864;20.136;2023-01-29T13:09:25;42.42;;;19.42;;
55218;SDS011;65463;43.864;20.136;2023-01-29T13:11:53;33.88;;;15.35;;
55218;SDS011;65463;43.864;20.136;2023-01-29T13:14:21;32.13;;;15.40;;
55218;SDS011;65463;43.864;20.136;2023-01-29T13:16:53;41.22;;;19.05;;
55218;SDS011;65463;43.864;20.136;2023-01-29T13:19:37;39.15;;;18.35;;
55218;SDS011;65463;43.864;20.136;2023-01-29T13:22:04;33.53;;;15.90;;
55218;SDS011;65463;43.864;20.136;2023-01-29T13:24:39;38.72;;;16.02;;
55218;SDS011;65463;43.864;20.136;2023-01-29T13:27:06;38.10;;;16.48;;
55218;SDS011;65463;43.864;20.136;2023-01-29T13:29:32;35.72;;;16.02;;
55218;SDS011;65463;43.864;20.136;2023-01-29T13:31:59;32.80;;;15.48;;
55218;SDS011;65463;43.864;20.136;2023-01-29T13:34:27;39.33;;;16.55;;
55218;SDS011;65463;43.864;20.136;2023-01-29T13:37:03;33.08;;;15.63;;
55218;SDS011;65463;43.864;20.136;2023-01-29T13:39:37;34.53;;;16.13;;
55218;SDS011;65463;43.864;20.136;2023-01-29T13:42:16;34.65;;;15.98;;
55218;SDS011;65463;43.864;20.136;2023-01-29T13:44:46;36.75;;;16.38;;
55218;SDS011;65463;43.864;20.136;2023-01-29T13:47:20;41.90;;;20.05;;
55218;SDS011;65463;43.864;20.136;2023-01-29T13:49:54;33.33;;;15.25;;
55218;SDS011;65463;43.864;20.136;2023-01-29T13:52:35;35.20;;;15.63;;
55218;SDS011;65463;43.864;20.136;2023-01-29T13:55:08;37.65;;;16.92;;
55218;SDS011;65463;43.864;20.136;2023-01-29T13:57:53;39.20;;;17.50;;
55218;SDS011;65463;43.864;20.136;2023-01-29T14:03:31;40.90;;;18.23;;
55218;SDS011;65463;43.864;20.136;2023-01-29T14:05:41;35.17;;;15.18;;
55218;SDS011;65463;43.864;20.136;2023-01-29T14:10:34;34.28;;;14.07;;
55218;SDS011;65463;43.864;20.136;2023-01-29T14:15:43;35.85;;;16.67;;
55218;SDS011;65463;43.864;20.136;2023-01-29T14:25:56;42.03;;;20.58;;
55218;SDS011;65463;43.864;20.136;2023-01-29T14:28:25;40.70;;;19.80;;
55218;SDS011;65463;43.864;20.136;2023-01-29T14:30:51;41.63;;;19.45;;
55218;SDS011;65463;43.864;20.136;2023-01-29T14:35:48;38.15;;;16.35;;
55218;SDS011;65463;43.864;20.136;2023-01-29T14:38:15;35.15;;;16.13;;
55218;SDS011;65463;43.864;20.136;2023-01-29T14:40:41;33.88;;;16.35;;
55218;SDS011;65463;43.864;20.136;2023-01-29T14:43:16;37.53;;;16.17;;
55218;SDS011;65463;43.864;20.136;2023-01-29T14:45:44;34.90;;;15.73;;
55218;SDS011;65463;43.864;20.136;2023-01-29T14:50:47;35.95;;;16.75;;
55218;SDS011;65463;43.864;20.136;2023-01-29T14:56:00;42.03;;;18.48;;
55218;SDS011;65463;43.864;20.136;2023-01-29T14:58:35;41.55;;;18.65;;
55218;SDS011;65463;43.864;20.136;2023-01-29T15:01:18;43.08;;;19.42;;
55218;SDS011;65463;43.864;20.136;2023-01-29T15:09:33;38.35;;;17.52;;
55218;SDS011;65463;43.864;20.136;2023-01-29T15:18:04;44.78;;;18.50;;
55218;SDS011;65463;43.864;20.136;2023-01-29T15:20:29;45.45;;;19.38;;
55218;SDS011;65463;43.864;20.136;2023-01-29T15:22:56;43.42;;;18.98;;
55218;SDS011;65463;43.864;20.136;2023-01-29T15:25:22;44.53;;;18.75;;
55218;SDS011;65463;43.864;20.136;2023-01-29T15:27:48;45.03;;;19.58;;
55218;SDS011;65463;43.864;20.136;2023-01-29T15:30:16;43.50;;;19.17;;
55218;SDS011;65463;43.864;20.136;2023-01-29T15:32:43;43.80;;;19.38;;
55218;SDS011;65463;43.864;20.136;2023-01-29T15:35:10;44.72;;;20.00;;
55218;SDS011;65463;43.864;20.136;2023-01-29T15:37:42;47.72;;;20.77;;
55218;SDS011;65463;43.864;20.136;2023-01-29T15:40:13;47.08;;;20.88;;
55218;SDS011;65463;43.864;20.136;2023-01-29T15:42:41;46.72;;;19.65;;
55218;SDS011;65463;43.864;20.136;2023-01-29T15:45:26;50.90;;;22.23;;
55218;SDS011;65463;43.864;20.136;2023-01-29T15:47:53;46.88;;;20.02;;
55218;SDS011;65463;43.864;20.136;2023-01-29T15:50:20;43.08;;;19.60;;
55218;SDS011;65463;43.864;20.136;2023-01-29T15:52:47;43.88;;;19.77;;
55218;SDS011;65463;43.864;20.136;2023-01-29T15:55:14;47.83;;;19.42;;
55218;SDS011;65463;43.864;20.136;2023-01-29T15:57:40;42.97;;;19.30;;
55218;SDS011;65463;43.864;20.136;2023-01-29T16:00:16;43.97;;;18.92;;
55218;SDS011;65463;43.864;20.136;2023-01-29T16:02:45;46.50;;;19.70;;
55218;SDS011;65463;43.864;20.136;2023-01-29T16:05:15;43.65;;;19.15;;
55218;SDS011;65463;43.864;20.136;2023-01-29T16:07:42;43.55;;;19.70;;
55218;SDS011;65463;43.864;20.136;2023-01-29T16:10:16;48.53;;;21.77;;
55218;SDS011;65463;43.864;20.136;2023-01-29T16:12:43;44.15;;;19.13;;
55218;SDS011;65463;43.864;20.136;2023-01-29T16:15:17;45.45;;;19.63;;
55218;SDS011;65463;43.864;20.136;2023-01-29T16:17:45;45.60;;;19.75;;
55218;SDS011;65463;43.864;20.136;2023-01-29T16:20:35;45.40;;;19.90;;
55218;SDS011;65463;43.864;20.136;2023-01-29T16:23:02;46.30;;;20.17;;
55218;SDS011;65463;43.864;20.136;2023-01-29T16:25:30;47.35;;;21.10;;
55218;SDS011;65463;43.864;20.136;2023-01-29T16:27:56;45.40;;;20.95;;